Silky Ocean — 3FOD5 — position and weather

sailwx.info

Track history (hours):
 
Tides and Currents Weather Stations Pressure Air Temp Water Temp Dewpoint Dewpoint Depression Visibility Wind Speed Wind Dir Waves Ship Positions

Silky Ocean

Last reported at 2017-Oct-02 07:26 UTC. Time now 2017-Oct-17 02:15 UTC.
Position N 32°20' W 123°24'.
Warning: this ship's position is 14 days out of date.

Length 199 m; draft 8.3 m.

Type: Cargo ship. MMSI: 357076000.

Date/timePositionNaut miles runAvg speedWind from/ knotsBaromVisibWave heightAir tempDewpointWater temp
2017-Oct-02 07:26N 32°20' W 123°24'21 9.1
2017-Oct-02 05:05N 32°13' W 122°59'59 9.2
2017-Oct-01 22:40N 31°55' W 121°53'210.1
2017-Oct-01 22:30N 31°55' W 121°51'5 5.3
2017-Oct-01 21:30N 31°55' W 121°45'1713.0
2017-Oct-01 20:09N 31°52' W 121°25'213.4
2017-Oct-01 20:00N 31°51' W 121°23'1315.5
2017-Oct-01 19:11N 31°54' W 121°08'415.2
2017-Oct-01 18:56N 31°55' W 121°04'1115.4
2017-Oct-01 18:15N 31°57' W 120°51'1314.9
2017-Oct-01 17:24N 31°60' W 120°37'714.9
2017-Oct-01 16:57N 32°01' W 120°29'814.6
2017-Oct-01 16:25N 32°03' W 120°20'1614.7
2017-Oct-01 15:17N 32°06' W 120°01'515.0
2017-Oct-01 14:59N 32°07' W 119°56'1215.0
2017-Oct-01 14:10N 32°10' W 119°42'414.7
2017-Oct-01 13:54N 32°10' W 119°37'615.2
2017-Oct-01 13:30N 32°12' W 119°30'815.2
2017-Oct-01 13:00N 32°13' W 119°21'815.1
2017-Oct-01 12:30N 32°15' W 119°13'815.2
2017-Oct-01 12:00N 32°16' W 119°04'816.3
2017-Oct-01 11:30N 32°18' W 118°55'816.2
2017-Oct-01 11:00N 32°20' W 118°45'816.4
2017-Oct-01 10:30N 32°22' W 118°36'816.6
2017-Oct-01 10:00N 32°24' W 118°26'917.1
2017-Oct-01 09:30N 32°25' W 118°16'816.9
2017-Oct-01 09:01N 32°27' W 118°06'917.1
2017-Oct-01 08:30N 32°29' W 117°57'816.9
2017-Oct-01 08:01N 32°31' W 117°47'917.0
2017-Oct-01 07:31N 32°33' W 117°37'917.0
2017-Oct-01 07:01N 32°34' W 117°27'816.2
2017-Oct-01 06:30N 32°36' W 117°18'5 9.7
2017-Oct-01 06:01N 32°40' W 117°14'4 7.5
2017-Oct-01 05:30N 32°43' W 117°11'5 9.4
2017-Oct-01 05:01N 32°39' W 117°07'0 0.2
2017-Oct-01 04:26N 32°39' W 117°07'0 0.0
2017-Oct-01 03:38N 32°39' W 117°07'0 0.0
2017-Oct-01 03:26N 32°39' W 117°07'0 0.0
2017-Oct-01 02:56N 32°39' W 117°07'138 5.5
2017-Sep-30 01:59N 34°09' W 119°12'0 0.0
2017-Sep-30 01:20N 34°09' W 119°12'0 0.0
2017-Sep-30 00:56N 34°09' W 119°12'0 0.0
2017-Sep-30 00:20N 34°09' W 119°12'0 0.0
2017-Sep-29 23:56N 34°09' W 119°12'0 0.0
2017-Sep-29 23:29N 34°09' W 119°12'0 0.0
2017-Sep-29 22:59N 34°09' W 119°12'0 0.0
2017-Sep-29 22:29N 34°09' W 119°12'0 0.0
2017-Sep-29 22:00N 34°09' W 119°12'0 0.0
2017-Sep-29 21:29N 34°09' W 119°12'0 0.0
2017-Sep-29 20:59N 34°09' W 119°12'0 0.0
2017-Sep-29 20:26N 34°09' W 119°12'0 0.0
2017-Sep-29 19:56N 34°09' W 119°12'0 0.0
2017-Sep-29 19:29N 34°09' W 119°12'0 0.0
2017-Sep-29 18:59N 34°09' W 119°12'0 0.0
2017-Sep-29 18:29N 34°09' W 119°12'0 0.0
2017-Sep-29 17:59N 34°09' W 119°12'0 0.0
2017-Sep-29 17:29N 34°09' W 119°12'0 0.0
2017-Sep-29 16:59N 34°09' W 119°12'0 0.0
2017-Sep-29 16:29N 34°09' W 119°12'0 0.0
2017-Sep-29 15:59N 34°09' W 119°12'0 0.0
2017-Sep-29 15:20N 34°09' W 119°12'0 0.0
2017-Sep-29 14:59N 34°09' W 119°12'0 0.0
2017-Sep-29 14:29N 34°09' W 119°12'0 0.0
2017-Sep-29 13:59N 34°09' W 119°12'0 0.0
2017-Sep-29 13:29N 34°09' W 119°12'0 0.2
2017-Sep-29 13:01N 34°09' W 119°12'2 4.6
2017-Sep-29 12:30N 34°07' W 119°14'3 6.0
2017-Sep-29 12:00N 34°05' W 119°16'3 5.6
2017-Sep-29 11:30N 34°03' W 119°19'4 7.6
2017-Sep-29 11:00N 34°04' W 119°24'4 7.6
2017-Sep-29 10:30N 34°05' W 119°28'4 8.9
2017-Sep-29 10:00N 34°06' W 119°33'5 9.0
2017-Sep-29 09:30N 34°07' W 119°39'5 9.0
2017-Sep-29 09:00N 34°09' W 119°44'5 9.2
2017-Sep-29 08:30N 34°10' W 119°49'5 9.3
2017-Sep-29 08:00N 34°11' W 119°55'5 9.3
2017-Sep-29 07:30N 34°13' W 119°60'510.0
2017-Sep-29 06:59N 34°14' W 120°06'510.1
2017-Sep-29 06:30N 34°15' W 120°12'610.8
2017-Sep-29 05:59N 34°17' W 120°18'4 9.5
2017-Sep-29 05:30N 34°18' W 120°24'5 9.4
2017-Sep-29 04:58N 34°19' W 120°30'4 9.4
2017-Sep-29 04:30N 34°20' W 120°35'5 9.2
2017-Sep-29 04:00N 34°22' W 120°40'610.9
2017-Sep-29 03:25N 34°23' W 120°47'410.8
2017-Sep-29 03:00N 34°24' W 120°53'510.7
2017-Sep-29 02:30N 34°23' W 120°59'510.8
2017-Sep-29 02:00N 34°22' W 121°05'2 5.0
2017-Sep-29 01:30N 34°21' W 121°08'610.8
2017-Sep-29 00:59N 34°19' W 121°14'611.1
2017-Sep-29 00:29N 34°17' W 121°21'815.3
2017-Sep-29 00:00N 34°15' W 121°30'816.4
2017-Sep-28 23:30N 34°13' W 121°39'714.5
2017-Sep-28 23:00N 34°12' W 121°47'612.7
2017-Sep-28 22:30N 34°09' W 121°55'612.7
2017-Sep-28 22:00N 34°07' W 122°02'612.6
2017-Sep-28 21:30N 34°06' W 122°09'612.7
2017-Sep-28 21:00N 34°04' W 122°17'612.7
2017-Sep-28 20:30N 34°02' W 122°24'612.8
2017-Sep-28 20:00N 34°01' W 122°32'5 9.9
2017-Sep-28 19:30N 34°03' W 122°37'713.2
2017-Sep-28 19:00N 34°09' W 122°40'713.2
2017-Sep-28 18:30N 34°15' W 122°44'713.3
2017-Sep-28 18:00N 34°21' W 122°48'713.2
2017-Sep-28 17:30N 34°27' W 122°52'713.2
2017-Sep-28 17:00N 34°32' W 122°55'713.5
2017-Sep-28 16:30N 34°38' W 122°59'713.2
2017-Sep-28 16:00N 34°44' W 123°03'713.1
2017-Sep-28 15:30N 34°50' W 123°07'713.1
2017-Sep-28 15:01N 34°55' W 123°11'5 9.4
2017-Sep-28 14:30N 34°60' W 123°14'816.0
2017-Sep-28 14:00N 35°07' W 123°18'816.3
2017-Sep-28 13:31N 35°14' W 123°22'816.1
2017-Sep-28 13:01N 35°21' W 123°27'816.2
2017-Sep-28 12:30N 35°29' W 123°31'816.2
2017-Sep-28 12:00N 35°36' W 123°36'816.2
2017-Sep-28 11:31N 35°43' W 123°40'816.2
2017-Sep-28 11:01N 35°50' W 123°45'816.0
2017-Sep-28 10:29N 35°58' W 123°50'816.1
2017-Sep-28 10:00N 36°04' W 123°54'916.2
2017-Sep-28 09:28N 36°12' W 123°59'716.0
2017-Sep-28 09:00N 36°19' W 124°04'816.5
2017-Sep-28 08:30N 36°26' W 124°08'816.5
2017-Sep-28 08:01N 36°33' W 124°13'816.4
2017-Sep-28 07:30N 36°41' W 124°18'2116.6
2017-Sep-28 06:16N 36°59' W 124°30'716.5
2017-Sep-28 05:50N 37°05' W 124°34'516.2
2017-Sep-28 05:30N 37°10' W 124°37'816.2
2017-Sep-28 05:01N 37°17' W 124°42'816.8
2017-Sep-28 04:30N 37°25' W 124°47'816.3
2017-Sep-28 04:01N 37°32' W 124°51'816.2
2017-Sep-28 03:31N 37°39' W 124°56'816.4
2017-Sep-28 03:01N 37°46' W 125°01'816.6
2017-Sep-28 02:31N 37°53' W 125°06'816.4
2017-Sep-28 02:00N 38°01' W 125°11'816.7
2017-Sep-28 01:31N 38°09' W 125°13'816.6
2017-Sep-28 01:01N 38°17' W 125°15'816.6
2017-Sep-28 00:30N 38°25' W 125°18'816.8
2017-Sep-28 00:01N 38°33' W 125°21'1216.8
2017-Sep-27 23:19N 38°44' W 125°25'516.9
2017-Sep-27 23:00N 38°49' W 125°27'8516.5
2017-Sep-27 17:52N 40°12' W 125°54'48116.2
2017-Sep-26 12:05N 48°13' W 125°45'115.3
2017-Sep-26 11:59N 48°14' W 125°43'815.7
2017-Sep-26 11:30N 48°16' W 125°33'815.4
2017-Sep-26 10:59N 48°19' W 125°21'815.3
2017-Sep-26 10:29N 48°22' W 125°11'816.2
2017-Sep-26 10:00N 48°29' W 125°04'714.6
2017-Sep-26 09:30N 48°31' W 124°53'817.0
2017-Sep-26 09:01N 48°30' W 124°41'917.7
2017-Sep-26 08:31N 48°26' W 124°28'918.1
2017-Sep-26 08:01N 48°23' W 124°16'918.3
2017-Sep-26 07:30N 48°19' W 124°03'918.0
2017-Sep-26 07:01N 48°17' W 123°50'918.6
2017-Sep-26 06:30N 48°15' W 123°36'815.4
2017-Sep-26 05:59N 48°12' W 123°25'510.0
2017-Sep-26 05:30N 48°09' W 123°20'917.7
2017-Sep-26 05:00N 48°13' W 123°08'918.2
2017-Sep-26 04:30N 48°12' W 122°54'917.2
2017-Sep-26 03:59N 48°08' W 122°42'817.2
2017-Sep-26 03:30N 48°01' W 122°37'817.0
2017-Sep-26 03:00N 47°54' W 122°29'917.8
2017-Sep-26 02:30N 47°46' W 122°26'917.6
2017-Sep-26 02:00N 47°37' W 122°27'917.4
2017-Sep-26 01:30N 47°29' W 122°24'714.1
2017-Sep-26 01:00N 47°22' W 122°23'510.1
2017-Sep-26 00:30N 47°17' W 122°26'1 2.1
2017-Sep-25 23:55N 47°16' W 122°25'0 0.0
2017-Sep-25 23:25N 47°16' W 122°25'0 0.0
2017-Sep-25 23:01N 47°16' W 122°25'0 0.0
2017-Sep-25 22:31N 47°16' W 122°25'0 0.0
2017-Sep-25 22:01N 47°16' W 122°25'0 0.0
2017-Sep-25 21:28N 47°16' W 122°25'0 0.0
2017-Sep-25 21:01N 47°16' W 122°25'0 0.0
2017-Sep-25 20:31N 47°16' W 122°25'0 0.0
2017-Sep-25 20:01N 47°16' W 122°25'0 0.0
2017-Sep-25 19:28N 47°16' W 122°25'0 0.0
2017-Sep-25 18:55N 47°16' W 122°25'0 0.0
2017-Sep-25 18:31N 47°16' W 122°25'0 0.0
2017-Sep-25 18:01N 47°16' W 122°25'0 0.0
2017-Sep-25 17:28N 47°16' W 122°25'0 0.0
2017-Sep-25 17:01N 47°16' W 122°25'0 0.0
2017-Sep-25 16:25N 47°16' W 122°25'0 0.0
2017-Sep-25 16:01N 47°16' W 122°25'0 0.0
2017-Sep-25 15:31N 47°16' W 122°25'0 0.0
2017-Sep-25 15:01N 47°16' W 122°25'0 0.0
2017-Sep-25 14:31N 47°16' W 122°25'0 0.0
2017-Sep-25 13:55N 47°16' W 122°25'0 0.0
2017-Sep-25 13:31N 47°16' W 122°25'0 0.0
2017-Sep-25 13:01N 47°16' W 122°25'0 0.0
2017-Sep-25 12:31N 47°16' W 122°25'0 0.0
2017-Sep-25 12:01N 47°16' W 122°25'0 0.0
2017-Sep-25 11:31N 47°16' W 122°25'0 0.0
2017-Sep-25 11:01N 47°16' W 122°25'0 0.0
2017-Sep-25 10:31N 47°16' W 122°25'0 0.0
2017-Sep-25 09:58N 47°16' W 122°25'0 0.0
2017-Sep-25 09:31N 47°16' W 122°25'0 0.0
2017-Sep-25 08:58N 47°16' W 122°25'0 0.0
2017-Sep-25 08:28N 47°16' W 122°25'0 0.0
2017-Sep-25 07:58N 47°16' W 122°25'0 0.0
2017-Sep-25 07:22N 47°16' W 122°25'0 0.0
2017-Sep-25 06:58N 47°16' W 122°25'0 0.0
2017-Sep-25 06:28N 47°16' W 122°25'0 0.0
2017-Sep-25 05:58N 47°16' W 122°25'0 0.0
2017-Sep-25 05:28N 47°16' W 122°25'0 0.0
2017-Sep-25 04:52N 47°16' W 122°25'0 0.0
2017-Sep-25 04:28N 47°16' W 122°25'0 0.0
2017-Sep-25 03:58N 47°16' W 122°25'0 0.0
2017-Sep-25 03:28N 47°16' W 122°25'0 0.0
2017-Sep-25 02:52N 47°16' W 122°25'0 0.0
2017-Sep-25 02:28N 47°16' W 122°25'0 0.2
2017-Sep-25 02:00N 47°16' W 122°25'1 1.7
2017-Sep-25 01:30N 47°17' W 122°25'4 7.2
2017-Sep-25 01:00N 47°20' W 122°26'713.5
2017-Sep-25 00:31N 47°27' W 122°25'918.1
2017-Sep-25 00:01N 47°36' W 122°28'917.7
2017-Sep-24 23:31N 47°45' W 122°27'917.9
2017-Sep-24 23:01N 47°54' W 122°29'917.4
2017-Sep-24 22:30N 48°00' W 122°38'1017.2
2017-Sep-24 21:57N 48°09' W 122°44'817.7
2017-Sep-24 21:30N 48°11' W 122°55'816.8
2017-Sep-24 21:00N 48°12' W 123°08'714.4
2017-Sep-24 20:30N 48°11' W 123°19'5 9.8
2017-Sep-24 20:00N 48°11' W 123°26'3 6.5
2017-Sep-24 19:30N 48°12' W 123°30'4 8.1
2017-Sep-24 18:59N 48°13' W 123°36'5 9.7
2017-Sep-24 18:30N 48°13' W 123°43'4 7.7
2017-Sep-24 18:00N 48°13' W 123°49'612.4
2017-Sep-24 17:30N 48°14' W 123°58'816.2
2017-Sep-24 17:00N 48°18' W 124°09'815.8
2017-Sep-24 16:30N 48°21' W 124°20'815.6
2017-Sep-24 16:00N 48°24' W 124°30'816.4
2017-Sep-24 15:30N 48°28' W 124°42'815.8
2017-Sep-24 15:00N 48°29' W 124°54'816.6
2017-Sep-24 14:30N 48°29' W 125°06'816.9
2017-Sep-24 14:00N 48°29' W 125°19'816.6
2017-Sep-24 13:30N 48°29' W 125°31'917.0
2017-Sep-24 13:00N 48°29' W 125°44'817.0
2017-Sep-24 12:30N 48°29' W 125°57'917.1
2017-Sep-24 12:00N 48°29' W 126°10'917.0
2017-Sep-24 11:30N 48°29' W 126°23'816.6
2017-Sep-24 11:00N 48°28' W 126°35'  
Track history (hours):
 
Tides and Currents Weather Stations Pressure Air Temp Water Temp Dewpoint Dewpoint Depression Visibility Wind Speed Wind Dir Waves Ship Positions

Silky Ocean

Last reported at 2017-Oct-02 07:26 UTC. Time now 2017-Oct-17 02:15 UTC.
Position N 32°20' W 123°24'.
Warning: this ship's position is 14 days out of date.

Length 199 m; draft 8.3 m.

Type: Cargo ship. MMSI: 357076000.

Date/timePositionNaut miles runAvg speedWind from/ knotsBaromVisibWave heightAir tempDewpointWater temp
2017-Oct-02 07:26N 32°20' W 123°24'21 9.1
2017-Oct-02 05:05N 32°13' W 122°59'59 9.2
2017-Oct-01 22:40N 31°55' W 121°53'210.1
2017-Oct-01 22:30N 31°55' W 121°51'5 5.3
2017-Oct-01 21:30N 31°55' W 121°45'1713.0
2017-Oct-01 20:09N 31°52' W 121°25'213.4
2017-Oct-01 20:00N 31°51' W 121°23'1315.5
2017-Oct-01 19:11N 31°54' W 121°08'415.2
2017-Oct-01 18:56N 31°55' W 121°04'1115.4
2017-Oct-01 18:15N 31°57' W 120°51'1314.9
2017-Oct-01 17:24N 31°60' W 120°37'714.9
2017-Oct-01 16:57N 32°01' W 120°29'814.6
2017-Oct-01 16:25N 32°03' W 120°20'1614.7
2017-Oct-01 15:17N 32°06' W 120°01'515.0
2017-Oct-01 14:59N 32°07' W 119°56'1215.0
2017-Oct-01 14:10N 32°10' W 119°42'414.7
2017-Oct-01 13:54N 32°10' W 119°37'615.2
2017-Oct-01 13:30N 32°12' W 119°30'815.2
2017-Oct-01 13:00N 32°13' W 119°21'815.1
2017-Oct-01 12:30N 32°15' W 119°13'815.2
2017-Oct-01 12:00N 32°16' W 119°04'816.3
2017-Oct-01 11:30N 32°18' W 118°55'816.2
2017-Oct-01 11:00N 32°20' W 118°45'816.4
2017-Oct-01 10:30N 32°22' W 118°36'816.6
2017-Oct-01 10:00N 32°24' W 118°26'917.1
2017-Oct-01 09:30N 32°25' W 118°16'816.9
2017-Oct-01 09:01N 32°27' W 118°06'917.1
2017-Oct-01 08:30N 32°29' W 117°57'816.9
2017-Oct-01 08:01N 32°31' W 117°47'917.0
2017-Oct-01 07:31N 32°33' W 117°37'917.0
2017-Oct-01 07:01N 32°34' W 117°27'816.2
2017-Oct-01 06:30N 32°36' W 117°18'5 9.7
2017-Oct-01 06:01N 32°40' W 117°14'4 7.5
2017-Oct-01 05:30N 32°43' W 117°11'5 9.4
2017-Oct-01 05:01N 32°39' W 117°07'0 0.2
2017-Oct-01 04:26N 32°39' W 117°07'0 0.0
2017-Oct-01 03:38N 32°39' W 117°07'0 0.0
2017-Oct-01 03:26N 32°39' W 117°07'0 0.0
2017-Oct-01 02:56N 32°39' W 117°07'138 5.5
2017-Sep-30 01:59N 34°09' W 119°12'0 0.0
2017-Sep-30 01:20N 34°09' W 119°12'0 0.0
2017-Sep-30 00:56N 34°09' W 119°12'0 0.0
2017-Sep-30 00:20N 34°09' W 119°12'0 0.0
2017-Sep-29 23:56N 34°09' W 119°12'0 0.0
2017-Sep-29 23:29N 34°09' W 119°12'0 0.0
2017-Sep-29 22:59N 34°09' W 119°12'0 0.0
2017-Sep-29 22:29N 34°09' W 119°12'0 0.0
2017-Sep-29 22:00N 34°09' W 119°12'0 0.0
2017-Sep-29 21:29N 34°09' W 119°12'0 0.0
2017-Sep-29 20:59N 34°09' W 119°12'0 0.0
2017-Sep-29 20:26N 34°09' W 119°12'0 0.0
2017-Sep-29 19:56N 34°09' W 119°12'0 0.0
2017-Sep-29 19:29N 34°09' W 119°12'0 0.0
2017-Sep-29 18:59N 34°09' W 119°12'0 0.0
2017-Sep-29 18:29N 34°09' W 119°12'0 0.0
2017-Sep-29 17:59N 34°09' W 119°12'0 0.0
2017-Sep-29 17:29N 34°09' W 119°12'0 0.0
2017-Sep-29 16:59N 34°09' W 119°12'0 0.0
2017-Sep-29 16:29N 34°09' W 119°12'0 0.0
2017-Sep-29 15:59N 34°09' W 119°12'0 0.0
2017-Sep-29 15:20N 34°09' W 119°12'0 0.0
2017-Sep-29 14:59N 34°09' W 119°12'0 0.0
2017-Sep-29 14:29N 34°09' W 119°12'0 0.0
2017-Sep-29 13:59N 34°09' W 119°12'0 0.0
2017-Sep-29 13:29N 34°09' W 119°12'0 0.2
2017-Sep-29 13:01N 34°09' W 119°12'2 4.6
2017-Sep-29 12:30N 34°07' W 119°14'3 6.0
2017-Sep-29 12:00N 34°05' W 119°16'3 5.6
2017-Sep-29 11:30N 34°03' W 119°19'4 7.6
2017-Sep-29 11:00N 34°04' W 119°24'4 7.6
2017-Sep-29 10:30N 34°05' W 119°28'4 8.9
2017-Sep-29 10:00N 34°06' W 119°33'5 9.0
2017-Sep-29 09:30N 34°07' W 119°39'5 9.0
2017-Sep-29 09:00N 34°09' W 119°44'5 9.2
2017-Sep-29 08:30N 34°10' W 119°49'5 9.3
2017-Sep-29 08:00N 34°11' W 119°55'5 9.3
2017-Sep-29 07:30N 34°13' W 119°60'510.0
2017-Sep-29 06:59N 34°14' W 120°06'510.1
2017-Sep-29 06:30N 34°15' W 120°12'610.8
2017-Sep-29 05:59N 34°17' W 120°18'4 9.5
2017-Sep-29 05:30N 34°18' W 120°24'5 9.4
2017-Sep-29 04:58N 34°19' W 120°30'4 9.4
2017-Sep-29 04:30N 34°20' W 120°35'5 9.2
2017-Sep-29 04:00N 34°22' W 120°40'610.9
2017-Sep-29 03:25N 34°23' W 120°47'410.8
2017-Sep-29 03:00N 34°24' W 120°53'510.7
2017-Sep-29 02:30N 34°23' W 120°59'510.8
2017-Sep-29 02:00N 34°22' W 121°05'2 5.0
2017-Sep-29 01:30N 34°21' W 121°08'610.8
2017-Sep-29 00:59N 34°19' W 121°14'611.1
2017-Sep-29 00:29N 34°17' W 121°21'815.3
2017-Sep-29 00:00N 34°15' W 121°30'816.4
2017-Sep-28 23:30N 34°13' W 121°39'714.5
2017-Sep-28 23:00N 34°12' W 121°47'612.7
2017-Sep-28 22:30N 34°09' W 121°55'612.7
2017-Sep-28 22:00N 34°07' W 122°02'612.6
2017-Sep-28 21:30N 34°06' W 122°09'612.7
2017-Sep-28 21:00N 34°04' W 122°17'612.7
2017-Sep-28 20:30N 34°02' W 122°24'612.8
2017-Sep-28 20:00N 34°01' W 122°32'5 9.9
2017-Sep-28 19:30N 34°03' W 122°37'713.2
2017-Sep-28 19:00N 34°09' W 122°40'713.2
2017-Sep-28 18:30N 34°15' W 122°44'713.3
2017-Sep-28 18:00N 34°21' W 122°48'713.2
2017-Sep-28 17:30N 34°27' W 122°52'713.2
2017-Sep-28 17:00N 34°32' W 122°55'713.5
2017-Sep-28 16:30N 34°38' W 122°59'713.2
2017-Sep-28 16:00N 34°44' W 123°03'713.1
2017-Sep-28 15:30N 34°50' W 123°07'713.1
2017-Sep-28 15:01N 34°55' W 123°11'5 9.4
2017-Sep-28 14:30N 34°60' W 123°14'816.0
2017-Sep-28 14:00N 35°07' W 123°18'816.3
2017-Sep-28 13:31N 35°14' W 123°22'816.1
2017-Sep-28 13:01N 35°21' W 123°27'816.2
2017-Sep-28 12:30N 35°29' W 123°31'816.2
2017-Sep-28 12:00N 35°36' W 123°36'816.2
2017-Sep-28 11:31N 35°43' W 123°40'816.2
2017-Sep-28 11:01N 35°50' W 123°45'816.0
2017-Sep-28 10:29N 35°58' W 123°50'816.1
2017-Sep-28 10:00N 36°04' W 123°54'916.2
2017-Sep-28 09:28N 36°12' W 123°59'716.0
2017-Sep-28 09:00N 36°19' W 124°04'816.5
2017-Sep-28 08:30N 36°26' W 124°08'816.5
2017-Sep-28 08:01N 36°33' W 124°13'816.4
2017-Sep-28 07:30N 36°41' W 124°18'2116.6
2017-Sep-28 06:16N 36°59' W 124°30'716.5
2017-Sep-28 05:50N 37°05' W 124°34'516.2
2017-Sep-28 05:30N 37°10' W 124°37'816.2
2017-Sep-28 05:01N 37°17' W 124°42'816.8
2017-Sep-28 04:30N 37°25' W 124°47'816.3
2017-Sep-28 04:01N 37°32' W 124°51'816.2
2017-Sep-28 03:31N 37°39' W 124°56'816.4
2017-Sep-28 03:01N 37°46' W 125°01'816.6
2017-Sep-28 02:31N 37°53' W 125°06'816.4
2017-Sep-28 02:00N 38°01' W 125°11'816.7
2017-Sep-28 01:31N 38°09' W 125°13'816.6
2017-Sep-28 01:01N 38°17' W 125°15'816.6
2017-Sep-28 00:30N 38°25' W 125°18'816.8
2017-Sep-28 00:01N 38°33' W 125°21'1216.8
2017-Sep-27 23:19N 38°44' W 125°25'516.9
2017-Sep-27 23:00N 38°49' W 125°27'8516.5
2017-Sep-27 17:52N 40°12' W 125°54'48116.2
2017-Sep-26 12:05N 48°13' W 125°45'115.3
2017-Sep-26 11:59N 48°14' W 125°43'815.7
2017-Sep-26 11:30N 48°16' W 125°33'815.4
2017-Sep-26 10:59N 48°19' W 125°21'815.3
2017-Sep-26 10:29N 48°22' W 125°11'816.2
2017-Sep-26 10:00N 48°29' W 125°04'714.6
2017-Sep-26 09:30N 48°31' W 124°53'817.0
2017-Sep-26 09:01N 48°30' W 124°41'917.7
2017-Sep-26 08:31N 48°26' W 124°28'918.1
2017-Sep-26 08:01N 48°23' W 124°16'918.3
2017-Sep-26 07:30N 48°19' W 124°03'918.0
2017-Sep-26 07:01N 48°17' W 123°50'918.6
2017-Sep-26 06:30N 48°15' W 123°36'815.4
2017-Sep-26 05:59N 48°12' W 123°25'510.0
2017-Sep-26 05:30N 48°09' W 123°20'917.7
2017-Sep-26 05:00N 48°13' W 123°08'918.2
2017-Sep-26 04:30N 48°12' W 122°54'917.2
2017-Sep-26 03:59N 48°08' W 122°42'817.2
2017-Sep-26 03:30N 48°01' W 122°37'817.0
2017-Sep-26 03:00N 47°54' W 122°29'917.8
2017-Sep-26 02:30N 47°46' W 122°26'917.6
2017-Sep-26 02:00N 47°37' W 122°27'917.4
2017-Sep-26 01:30N 47°29' W 122°24'714.1
2017-Sep-26 01:00N 47°22' W 122°23'510.1
2017-Sep-26 00:30N 47°17' W 122°26'1 2.1
2017-Sep-25 23:55N 47°16' W 122°25'0 0.0
2017-Sep-25 23:25N 47°16' W 122°25'0 0.0
2017-Sep-25 23:01N 47°16' W 122°25'0 0.0
2017-Sep-25 22:31N 47°16' W 122°25'0 0.0
2017-Sep-25 22:01N 47°16' W 122°25'0 0.0
2017-Sep-25 21:28N 47°16' W 122°25'0 0.0
2017-Sep-25 21:01N 47°16' W 122°25'0 0.0
2017-Sep-25 20:31N 47°16' W 122°25'0 0.0
2017-Sep-25 20:01N 47°16' W 122°25'0 0.0
2017-Sep-25 19:28N 47°16' W 122°25'0 0.0
2017-Sep-25 18:55N 47°16' W 122°25'0 0.0
2017-Sep-25 18:31N 47°16' W 122°25'0 0.0
2017-Sep-25 18:01N 47°16' W 122°25'0 0.0
2017-Sep-25 17:28N 47°16' W 122°25'0 0.0
2017-Sep-25 17:01N 47°16' W 122°25'0 0.0
2017-Sep-25 16:25N 47°16' W 122°25'0 0.0
2017-Sep-25 16:01N 47°16' W 122°25'0 0.0
2017-Sep-25 15:31N 47°16' W 122°25'0 0.0
2017-Sep-25 15:01N 47°16' W 122°25'0 0.0
2017-Sep-25 14:31N 47°16' W 122°25'0 0.0
2017-Sep-25 13:55N 47°16' W 122°25'0 0.0
2017-Sep-25 13:31N 47°16' W 122°25'0 0.0
2017-Sep-25 13:01N 47°16' W 122°25'0 0.0
2017-Sep-25 12:31N 47°16' W 122°25'0 0.0
2017-Sep-25 12:01N 47°16' W 122°25'0 0.0
2017-Sep-25 11:31N 47°16' W 122°25'0 0.0
2017-Sep-25 11:01N 47°16' W 122°25'0 0.0
2017-Sep-25 10:31N 47°16' W 122°25'0 0.0
2017-Sep-25 09:58N 47°16' W 122°25'0 0.0
2017-Sep-25 09:31N 47°16' W 122°25'0 0.0
2017-Sep-25 08:58N 47°16' W 122°25'0 0.0
2017-Sep-25 08:28N 47°16' W 122°25'0 0.0
2017-Sep-25 07:58N 47°16' W 122°25'0 0.0
2017-Sep-25 07:22N 47°16' W 122°25'0 0.0
2017-Sep-25 06:58N 47°16' W 122°25'0 0.0
2017-Sep-25 06:28N 47°16' W 122°25'0 0.0
2017-Sep-25 05:58N 47°16' W 122°25'0 0.0
2017-Sep-25 05:28N 47°16' W 122°25'0 0.0
2017-Sep-25 04:52N 47°16' W 122°25'0 0.0
2017-Sep-25 04:28N 47°16' W 122°25'0 0.0
2017-Sep-25 03:58N 47°16' W 122°25'0 0.0
2017-Sep-25 03:28N 47°16' W 122°25'0 0.0
2017-Sep-25 02:52N 47°16' W 122°25'0 0.0
2017-Sep-25 02:28N 47°16' W 122°25'0 0.2
2017-Sep-25 02:00N 47°16' W 122°25'1 1.7
2017-Sep-25 01:30N 47°17' W 122°25'4 7.2
2017-Sep-25 01:00N 47°20' W 122°26'713.5
2017-Sep-25 00:31N 47°27' W 122°25'918.1
2017-Sep-25 00:01N 47°36' W 122°28'917.7
2017-Sep-24 23:31N 47°45' W 122°27'917.9
2017-Sep-24 23:01N 47°54' W 122°29'917.4
2017-Sep-24 22:30N 48°00' W 122°38'1017.2
2017-Sep-24 21:57N 48°09' W 122°44'817.7
2017-Sep-24 21:30N 48°11' W 122°55'816.8
2017-Sep-24 21:00N 48°12' W 123°08'714.4
2017-Sep-24 20:30N 48°11' W 123°19'5 9.8
2017-Sep-24 20:00N 48°11' W 123°26'3 6.5
2017-Sep-24 19:30N 48°12' W 123°30'4 8.1
2017-Sep-24 18:59N 48°13' W 123°36'5 9.7
2017-Sep-24 18:30N 48°13' W 123°43'4 7.7
2017-Sep-24 18:00N 48°13' W 123°49'612.4
2017-Sep-24 17:30N 48°14' W 123°58'816.2
2017-Sep-24 17:00N 48°18' W 124°09'815.8
2017-Sep-24 16:30N 48°21' W 124°20'815.6
2017-Sep-24 16:00N 48°24' W 124°30'816.4
2017-Sep-24 15:30N 48°28' W 124°42'815.8
2017-Sep-24 15:00N 48°29' W 124°54'816.6
2017-Sep-24 14:30N 48°29' W 125°06'816.9
2017-Sep-24 14:00N 48°29' W 125°19'816.6
2017-Sep-24 13:30N 48°29' W 125°31'917.0
2017-Sep-24 13:00N 48°29' W 125°44'817.0
2017-Sep-24 12:30N 48°29' W 125°57'917.1
2017-Sep-24 12:00N 48°29' W 126°10'917.0
2017-Sep-24 11:30N 48°29' W 126°23'816.6
2017-Sep-24 11:00N 48°28' W 126°35'  

Dump ship's entire track history